sensor_id;sensor_type;location;lat;lon;timestamp;P1;durP1;ratioP1;P2;durP2;ratioP2
73487;SDS011;61721;42.206;25.320;2024-03-29T00:02:08;20.50;;;4.07;;
73487;SDS011;61721;42.206;25.320;2024-03-29T00:04:34;19.83;;;4.75;;
73487;SDS011;61721;42.206;25.320;2024-03-29T00:07:00;17.88;;;3.65;;
73487;SDS011;61721;42.206;25.320;2024-03-29T00:09:26;26.48;;;4.10;;
73487;SDS011;61721;42.206;25.320;2024-03-29T00:11:54;24.63;;;4.32;;
73487;SDS011;61721;42.206;25.320;2024-03-29T00:14:20;24.42;;;4.60;;
73487;SDS011;61721;42.206;25.320;2024-03-29T00:16:46;21.52;;;4.93;;
73487;SDS011;61721;42.206;25.320;2024-03-29T00:19:13;22.40;;;4.20;;
73487;SDS011;61721;42.206;25.320;2024-03-29T00:21:39;21.67;;;4.47;;
73487;SDS011;61721;42.206;25.320;2024-03-29T00:24:06;18.92;;;4.05;;
73487;SDS011;61721;42.206;25.320;2024-03-29T00:26:32;23.58;;;4.22;;
73487;SDS011;61721;42.206;25.320;2024-03-29T00:29:00;22.25;;;5.25;;
73487;SDS011;61721;42.206;25.320;2024-03-29T00:31:26;22.95;;;4.20;;
73487;SDS011;61721;42.206;25.320;2024-03-29T00:33:59;21.70;;;4.35;;
73487;SDS011;61721;42.206;25.320;2024-03-29T00:36:25;16.15;;;4.20;;
73487;SDS011;61721;42.206;25.320;2024-03-29T00:38:51;20.27;;;4.78;;
73487;SDS011;61721;42.206;25.320;2024-03-29T00:41:18;14.55;;;4.20;;
73487;SDS011;61721;42.206;25.320;2024-03-29T00:43:44;21.63;;;3.58;;
73487;SDS011;61721;42.206;25.320;2024-03-29T00:46:12;23.70;;;4.30;;
73487;SDS011;61721;42.206;25.320;2024-03-29T00:48:38;14.73;;;3.42;;
73487;SDS011;61721;42.206;25.320;2024-03-29T00:51:04;16.17;;;3.72;;
73487;SDS011;61721;42.206;25.320;2024-03-29T00:53:31;22.50;;;4.25;;
73487;SDS011;61721;42.206;25.320;2024-03-29T00:55:57;14.98;;;3.97;;
73487;SDS011;61721;42.206;25.320;2024-03-29T00:58:23;19.40;;;3.63;;
73487;SDS011;61721;42.206;25.320;2024-03-29T01:00:50;13.60;;;3.15;;
73487;SDS011;61721;42.206;25.320;2024-03-29T01:03:18;15.30;;;4.13;;
73487;SDS011;61721;42.206;25.320;2024-03-29T01:05:44;15.18;;;3.40;;
73487;SDS011;61721;42.206;25.320;2024-03-29T01:08:10;14.30;;;3.72;;
73487;SDS011;61721;42.206;25.320;2024-03-29T01:10:37;20.52;;;3.20;;
73487;SDS011;61721;42.206;25.320;2024-03-29T01:13:03;18.88;;;3.90;;
73487;SDS011;61721;42.206;25.320;2024-03-29T01:15:29;18.23;;;3.92;;
73487;SDS011;61721;42.206;25.320;2024-03-29T01:17:56;16.25;;;2.95;;
73487;SDS011;61721;42.206;25.320;2024-03-29T01:20:23;12.70;;;3.13;;
73487;SDS011;61721;42.206;25.320;2024-03-29T01:22:50;22.80;;;3.72;;
73487;SDS011;61721;42.206;25.320;2024-03-29T01:25:16;15.05;;;3.17;;
73487;SDS011;61721;42.206;25.320;2024-03-29T01:27:42;15.82;;;3.10;;
73487;SDS011;61721;42.206;25.320;2024-03-29T01:30:09;8.98;;;3.15;;
73487;SDS011;61721;42.206;25.320;2024-03-29T01:32:36;18.67;;;3.20;;
73487;SDS011;61721;42.206;25.320;2024-03-29T01:35:02;18.05;;;3.22;;
73487;SDS011;61721;42.206;25.320;2024-03-29T01:37:30;13.98;;;3.40;;
73487;SDS011;61721;42.206;25.320;2024-03-29T01:39:56;12.82;;;2.90;;
73487;SDS011;61721;42.206;25.320;2024-03-29T01:42:23;16.27;;;3.65;;
73487;SDS011;61721;42.206;25.320;2024-03-29T01:44:49;13.00;;;3.10;;
73487;SDS011;61721;42.206;25.320;2024-03-29T01:47:16;18.58;;;3.67;;
73487;SDS011;61721;42.206;25.320;2024-03-29T01:49:46;15.60;;;3.25;;
73487;SDS011;61721;42.206;25.320;2024-03-29T01:52:17;19.02;;;4.03;;
73487;SDS011;61721;42.206;25.320;2024-03-29T01:54:47;17.15;;;3.03;;
73487;SDS011;61721;42.206;25.320;2024-03-29T01:57:15;17.02;;;3.92;;
73487;SDS011;61721;42.206;25.320;2024-03-29T01:59:44;20.55;;;3.22;;
73487;SDS011;61721;42.206;25.320;2024-03-29T02:02:13;16.15;;;3.30;;
73487;SDS011;61721;42.206;25.320;2024-03-29T02:04:41;13.13;;;2.92;;
73487;SDS011;61721;42.206;25.320;2024-03-29T02:07:09;16.15;;;3.03;;
73487;SDS011;61721;42.206;25.320;2024-03-29T02:09:36;21.30;;;3.33;;
73487;SDS011;61721;42.206;25.320;2024-03-29T02:12:05;10.68;;;2.50;;
73487;SDS011;61721;42.206;25.320;2024-03-29T02:14:34;10.70;;;3.17;;
73487;SDS011;61721;42.206;25.320;2024-03-29T02:17:01;15.43;;;3.05;;
73487;SDS011;61721;42.206;25.320;2024-03-29T02:19:29;10.93;;;3.22;;
73487;SDS011;61721;42.206;25.320;2024-03-29T02:21:56;8.00;;;2.78;;
73487;SDS011;61721;42.206;25.320;2024-03-29T02:24:27;11.00;;;2.00;;
73487;SDS011;61721;42.206;25.320;2024-03-29T02:26:55;9.40;;;2.13;;
73487;SDS011;61721;42.206;25.320;2024-03-29T02:29:23;6.32;;;2.33;;
73487;SDS011;61721;42.206;25.320;2024-03-29T02:31:51;8.00;;;2.15;;
73487;SDS011;61721;42.206;25.320;2024-03-29T02:34:18;9.40;;;2.00;;
73487;SDS011;61721;42.206;25.320;2024-03-29T02:36:45;6.22;;;2.03;;
73487;SDS011;61721;42.206;25.320;2024-03-29T02:39:13;9.95;;;1.90;;
73487;SDS011;61721;42.206;25.320;2024-03-29T02:41:41;8.05;;;2.10;;
73487;SDS011;61721;42.206;25.320;2024-03-29T02:46:36;8.20;;;2.60;;
73487;SDS011;61721;42.206;25.320;2024-03-29T02:49:03;8.98;;;2.60;;
73487;SDS011;61721;42.206;25.320;2024-03-29T02:51:29;9.82;;;1.98;;
73487;SDS011;61721;42.206;25.320;2024-03-29T02:53:57;10.48;;;2.58;;
73487;SDS011;61721;42.206;25.320;2024-03-29T02:56:23;7.82;;;1.63;;
73487;SDS011;61721;42.206;25.320;2024-03-29T02:58:54;9.73;;;2.33;;
73487;SDS011;61721;42.206;25.320;2024-03-29T03:01:20;7.30;;;2.63;;
73487;SDS011;61721;42.206;25.320;2024-03-29T03:03:48;7.90;;;2.00;;
73487;SDS011;61721;42.206;25.320;2024-03-29T03:06:14;8.50;;;1.73;;
73487;SDS011;61721;42.206;25.320;2024-03-29T03:08:41;8.93;;;2.22;;
73487;SDS011;61721;42.206;25.320;2024-03-29T03:11:26;8.13;;;2.33;;
73487;SDS011;61721;42.206;25.320;2024-03-29T03:13:55;8.90;;;2.13;;
73487;SDS011;61721;42.206;25.320;2024-03-29T03:16:22;12.27;;;2.58;;
73487;SDS011;61721;42.206;25.320;2024-03-29T03:18:50;9.23;;;2.22;;
73487;SDS011;61721;42.206;25.320;2024-03-29T03:21:16;6.60;;;2.00;;
73487;SDS011;61721;42.206;25.320;2024-03-29T03:23:43;11.07;;;2.25;;
73487;SDS011;61721;42.206;25.320;2024-03-29T03:26:09;6.57;;;2.13;;
73487;SDS011;61721;42.206;25.320;2024-03-29T03:28:37;9.63;;;2.72;;
73487;SDS011;61721;42.206;25.320;2024-03-29T03:31:05;5.97;;;1.98;;
73487;SDS011;61721;42.206;25.320;2024-03-29T03:33:34;8.18;;;2.17;;
73487;SDS011;61721;42.206;25.320;2024-03-29T03:36:00;8.75;;;3.10;;
73487;SDS011;61721;42.206;25.320;2024-03-29T03:38:28;7.35;;;2.80;;
73487;SDS011;61721;42.206;25.320;2024-03-29T03:40:54;7.47;;;2.22;;
73487;SDS011;61721;42.206;25.320;2024-03-29T03:43:21;5.88;;;2.50;;
73487;SDS011;61721;42.206;25.320;2024-03-29T03:45:48;12.18;;;2.47;;
73487;SDS011;61721;42.206;25.320;2024-03-29T03:48:16;7.00;;;1.58;;
73487;SDS011;61721;42.206;25.320;2024-03-29T03:50:43;12.13;;;2.08;;
73487;SDS011;61721;42.206;25.320;2024-03-29T03:53:10;9.25;;;2.08;;
73487;SDS011;61721;42.206;25.320;2024-03-29T03:55:36;6.32;;;2.00;;
73487;SDS011;61721;42.206;25.320;2024-03-29T03:58:04;7.60;;;1.75;;
73487;SDS011;61721;42.206;25.320;2024-03-29T04:00:31;8.35;;;2.10;;
73487;SDS011;61721;42.206;25.320;2024-03-29T04:02:58;6.00;;;1.88;;
73487;SDS011;61721;42.206;25.320;2024-03-29T04:05:26;7.20;;;1.67;;
73487;SDS011;61721;42.206;25.320;2024-03-29T04:07:53;7.13;;;1.92;;
73487;SDS011;61721;42.206;25.320;2024-03-29T04:10:19;7.85;;;2.40;;
73487;SDS011;61721;42.206;25.320;2024-03-29T04:12:47;5.35;;;1.80;;
73487;SDS011;61721;42.206;25.320;2024-03-29T04:15:13;10.52;;;2.08;;
73487;SDS011;61721;42.206;25.320;2024-03-29T04:17:40;5.13;;;2.00;;
73487;SDS011;61721;42.206;25.320;2024-03-29T04:20:08;6.80;;;2.20;;
73487;SDS011;61721;42.206;25.320;2024-03-29T04:22:36;5.53;;;1.70;;
73487;SDS011;61721;42.206;25.320;2024-03-29T04:25:04;8.45;;;1.98;;
73487;SDS011;61721;42.206;25.320;2024-03-29T04:27:30;5.90;;;1.65;;
73487;SDS011;61721;42.206;25.320;2024-03-29T04:29:58;8.88;;;1.95;;
73487;SDS011;61721;42.206;25.320;2024-03-29T04:32:25;10.60;;;2.03;;
73487;SDS011;61721;42.206;25.320;2024-03-29T04:34:52;8.75;;;2.00;;
73487;SDS011;61721;42.206;25.320;2024-03-29T04:37:18;7.32;;;1.73;;
73487;SDS011;61721;42.206;25.320;2024-03-29T04:39:48;9.38;;;2.00;;
73487;SDS011;61721;42.206;25.320;2024-03-29T04:42:15;5.18;;;1.60;;
73487;SDS011;61721;42.206;25.320;2024-03-29T04:44:42;7.00;;;1.83;;
73487;SDS011;61721;42.206;25.320;2024-03-29T04:47:10;5.45;;;1.33;;
73487;SDS011;61721;42.206;25.320;2024-03-29T04:49:37;6.43;;;1.70;;
73487;SDS011;61721;42.206;25.320;2024-03-29T04:52:05;6.57;;;1.55;;
73487;SDS011;61721;42.206;25.320;2024-03-29T04:54:33;20.58;;;3.05;;
73487;SDS011;61721;42.206;25.320;2024-03-29T04:57:02;7.50;;;1.88;;
73487;SDS011;61721;42.206;25.320;2024-03-29T04:59:32;12.35;;;2.00;;
73487;SDS011;61721;42.206;25.320;2024-03-29T05:01:59;8.82;;;2.83;;
73487;SDS011;61721;42.206;25.320;2024-03-29T05:04:27;9.63;;;2.17;;
73487;SDS011;61721;42.206;25.320;2024-03-29T05:06:55;9.15;;;1.80;;
73487;SDS011;61721;42.206;25.320;2024-03-29T05:09:23;5.65;;;1.77;;
73487;SDS011;61721;42.206;25.320;2024-03-29T05:11:51;5.38;;;1.63;;
73487;SDS011;61721;42.206;25.320;2024-03-29T05:14:20;6.80;;;1.85;;
73487;SDS011;61721;42.206;25.320;2024-03-29T05:16:54;4.38;;;1.42;;
73487;SDS011;61721;42.206;25.320;2024-03-29T05:19:24;6.13;;;1.52;;
73487;SDS011;61721;42.206;25.320;2024-03-29T05:21:52;7.95;;;1.90;;
73487;SDS011;61721;42.206;25.320;2024-03-29T05:24:20;5.93;;;1.27;;
73487;SDS011;61721;42.206;25.320;2024-03-29T05:26:47;6.93;;;2.30;;
73487;SDS011;61721;42.206;25.320;2024-03-29T05:29:14;7.05;;;2.28;;
73487;SDS011;61721;42.206;25.320;2024-03-29T05:31:44;8.23;;;2.85;;
73487;SDS011;61721;42.206;25.320;2024-03-29T05:36:49;10.00;;;2.30;;
73487;SDS011;61721;42.206;25.320;2024-03-29T05:39:16;5.38;;;1.50;;
73487;SDS011;61721;42.206;25.320;2024-03-29T05:41:44;6.88;;;1.83;;
73487;SDS011;61721;42.206;25.320;2024-03-29T05:44:13;6.75;;;1.23;;
73487;SDS011;61721;42.206;25.320;2024-03-29T05:46:47;4.78;;;1.85;;
73487;SDS011;61721;42.206;25.320;2024-03-29T05:49:16;5.03;;;1.30;;
73487;SDS011;61721;42.206;25.320;2024-03-29T05:51:43;4.25;;;0.95;;
73487;SDS011;61721;42.206;25.320;2024-03-29T05:54:11;5.57;;;1.10;;
73487;SDS011;61721;42.206;25.320;2024-03-29T05:56:39;8.82;;;1.30;;
73487;SDS011;61721;42.206;25.320;2024-03-29T05:59:06;3.72;;;1.15;;
73487;SDS011;61721;42.206;25.320;2024-03-29T06:01:34;5.07;;;1.10;;
73487;SDS011;61721;42.206;25.320;2024-03-29T06:04:03;8.73;;;2.17;;
73487;SDS011;61721;42.206;25.320;2024-03-29T06:06:38;8.27;;;2.40;;
73487;SDS011;61721;42.206;25.320;2024-03-29T06:09:06;9.95;;;3.13;;
73487;SDS011;61721;42.206;25.320;2024-03-29T06:11:33;16.60;;;3.70;;
73487;SDS011;61721;42.206;25.320;2024-03-29T06:14:01;5.90;;;2.25;;
73487;SDS011;61721;42.206;25.320;2024-03-29T06:16:46;7.55;;;1.60;;
73487;SDS011;61721;42.206;25.320;2024-03-29T06:19:32;8.45;;;2.35;;
73487;SDS011;61721;42.206;25.320;2024-03-29T06:21:59;13.57;;;3.92;;
73487;SDS011;61721;42.206;25.320;2024-03-29T06:24:27;5.32;;;1.40;;
73487;SDS011;61721;42.206;25.320;2024-03-29T06:26:58;10.82;;;3.58;;
73487;SDS011;61721;42.206;25.320;2024-03-29T06:29:25;5.97;;;1.88;;
73487;SDS011;61721;42.206;25.320;2024-03-29T06:31:53;7.07;;;1.80;;
73487;SDS011;61721;42.206;25.320;2024-03-29T06:34:21;5.05;;;1.90;;
73487;SDS011;61721;42.206;25.320;2024-03-29T06:36:50;5.93;;;2.22;;
73487;SDS011;61721;42.206;25.320;2024-03-29T06:39:17;6.07;;;1.80;;
73487;SDS011;61721;42.206;25.320;2024-03-29T06:41:45;12.80;;;2.05;;
73487;SDS011;61721;42.206;25.320;2024-03-29T06:44:13;4.63;;;2.13;;
73487;SDS011;61721;42.206;25.320;2024-03-29T06:46:40;4.25;;;1.42;;
73487;SDS011;61721;42.206;25.320;2024-03-29T06:49:07;4.07;;;1.10;;
73487;SDS011;61721;42.206;25.320;2024-03-29T06:51:42;7.75;;;1.15;;
73487;SDS011;61721;42.206;25.320;2024-03-29T06:54:11;4.10;;;1.00;;
73487;SDS011;61721;42.206;25.320;2024-03-29T06:56:39;4.57;;;1.00;;
73487;SDS011;61721;42.206;25.320;2024-03-29T06:59:06;4.22;;;1.13;;
73487;SDS011;61721;42.206;25.320;2024-03-29T07:01:33;4.88;;;1.15;;
73487;SDS011;61721;42.206;25.320;2024-03-29T07:04:01;3.47;;;1.17;;
73487;SDS011;61721;42.206;25.320;2024-03-29T07:06:29;7.38;;;1.67;;
73487;SDS011;61721;42.206;25.320;2024-03-29T07:08:56;3.67;;;1.05;;
73487;SDS011;61721;42.206;25.320;2024-03-29T07:11:25;3.08;;;0.98;;
73487;SDS011;61721;42.206;25.320;2024-03-29T07:13:52;5.60;;;1.17;;
73487;SDS011;61721;42.206;25.320;2024-03-29T07:16:19;6.03;;;0.85;;
73487;SDS011;61721;42.206;25.320;2024-03-29T07:18:47;3.25;;;0.80;;
73487;SDS011;61721;42.206;25.320;2024-03-29T07:21:15;4.43;;;1.20;;
73487;SDS011;61721;42.206;25.320;2024-03-29T07:23:44;4.47;;;1.00;;
73487;SDS011;61721;42.206;25.320;2024-03-29T07:26:11;5.88;;;1.08;;
73487;SDS011;61721;42.206;25.320;2024-03-29T07:28:40;5.78;;;1.15;;
73487;SDS011;61721;42.206;25.320;2024-03-29T07:31:07;3.35;;;1.10;;
73487;SDS011;61721;42.206;25.320;2024-03-29T07:33:35;6.47;;;1.60;;
73487;SDS011;61721;42.206;25.320;2024-03-29T07:36:10;4.75;;;0.95;;
73487;SDS011;61721;42.206;25.320;2024-03-29T07:38:38;3.17;;;1.00;;
73487;SDS011;61721;42.206;25.320;2024-03-29T07:41:05;5.30;;;0.90;;
73487;SDS011;61721;42.206;25.320;2024-03-29T07:43:39;3.53;;;0.90;;
73487;SDS011;61721;42.206;25.320;2024-03-29T07:46:08;5.75;;;1.02;;
73487;SDS011;61721;42.206;25.320;2024-03-29T07:48:35;3.83;;;0.80;;
73487;SDS011;61721;42.206;25.320;2024-03-29T07:51:02;5.32;;;0.90;;
73487;SDS011;61721;42.206;25.320;2024-03-29T07:53:30;4.93;;;1.17;;
73487;SDS011;61721;42.206;25.320;2024-03-29T07:55:57;3.75;;;1.00;;
73487;SDS011;61721;42.206;25.320;2024-03-29T07:58:25;4.05;;;0.95;;
73487;SDS011;61721;42.206;25.320;2024-03-29T08:00:54;3.17;;;0.80;;
73487;SDS011;61721;42.206;25.320;2024-03-29T08:03:22;6.32;;;1.30;;
73487;SDS011;61721;42.206;25.320;2024-03-29T08:05:55;3.75;;;1.00;;
73487;SDS011;61721;42.206;25.320;2024-03-29T08:08:23;4.25;;;0.93;;
73487;SDS011;61721;42.206;25.320;2024-03-29T08:10:52;4.55;;;1.08;;
73487;SDS011;61721;42.206;25.320;2024-03-29T08:13:20;11.48;;;1.38;;
73487;SDS011;61721;42.206;25.320;2024-03-29T08:15:48;2.95;;;0.93;;
73487;SDS011;61721;42.206;25.320;2024-03-29T08:18:17;6.18;;;1.10;;
73487;SDS011;61721;42.206;25.320;2024-03-29T08:20:44;20.50;;;1.52;;
73487;SDS011;61721;42.206;25.320;2024-03-29T08:23:11;8.18;;;1.13;;
73487;SDS011;61721;42.206;25.320;2024-03-29T08:25:39;6.97;;;1.00;;
73487;SDS011;61721;42.206;25.320;2024-03-29T08:28:06;4.90;;;1.13;;
73487;SDS011;61721;42.206;25.320;2024-03-29T08:30:34;5.57;;;1.25;;
73487;SDS011;61721;42.206;25.320;2024-03-29T08:33:01;7.07;;;1.00;;
73487;SDS011;61721;42.206;25.320;2024-03-29T08:35:31;4.40;;;1.20;;
73487;SDS011;61721;42.206;25.320;2024-03-29T08:38:08;4.57;;;1.30;;
73487;SDS011;61721;42.206;25.320;2024-03-29T08:40:36;5.15;;;1.13;;
73487;SDS011;61721;42.206;25.320;2024-03-29T08:43:07;3.47;;;1.05;;
73487;SDS011;61721;42.206;25.320;2024-03-29T08:45:36;4.65;;;1.23;;
73487;SDS011;61721;42.206;25.320;2024-03-29T08:48:06;6.88;;;1.83;;
73487;SDS011;61721;42.206;25.320;2024-03-29T08:50:36;4.97;;;0.93;;
73487;SDS011;61721;42.206;25.320;2024-03-29T08:53:04;2.75;;;0.82;;
73487;SDS011;61721;42.206;25.320;2024-03-29T08:55:31;2.67;;;0.90;;
73487;SDS011;61721;42.206;25.320;2024-03-29T08:58:00;7.88;;;1.02;;
73487;SDS011;61721;42.206;25.320;2024-03-29T09:00:28;5.18;;;0.90;;
73487;SDS011;61721;42.206;25.320;2024-03-29T09:02:56;2.33;;;0.70;;
73487;SDS011;61721;42.206;25.320;2024-03-29T09:05:24;4.25;;;0.90;;
73487;SDS011;61721;42.206;25.320;2024-03-29T09:07:54;3.95;;;0.98;;
73487;SDS011;61721;42.206;25.320;2024-03-29T09:10:22;4.75;;;0.80;;
73487;SDS011;61721;42.206;25.320;2024-03-29T09:12:52;7.30;;;1.10;;
73487;SDS011;61721;42.206;25.320;2024-03-29T09:15:19;3.03;;;1.00;;
73487;SDS011;61721;42.206;25.320;2024-03-29T09:17:47;6.78;;;1.08;;
73487;SDS011;61721;42.206;25.320;2024-03-29T09:20:14;4.07;;;1.02;;
73487;SDS011;61721;42.206;25.320;2024-03-29T09:22:41;6.35;;;1.00;;
73487;SDS011;61721;42.206;25.320;2024-03-29T09:25:10;5.32;;;1.15;;
73487;SDS011;61721;42.206;25.320;2024-03-29T09:27:40;2.63;;;1.00;;
73487;SDS011;61721;42.206;25.320;2024-03-29T09:30:09;5.75;;;0.82;;
73487;SDS011;61721;42.206;25.320;2024-03-29T09:32:39;17.60;;;1.75;;
73487;SDS011;61721;42.206;25.320;2024-03-29T09:35:07;5.95;;;1.10;;
73487;SDS011;61721;42.206;25.320;2024-03-29T09:37:34;4.03;;;0.90;;
73487;SDS011;61721;42.206;25.320;2024-03-29T09:40:05;4.32;;;0.98;;
73487;SDS011;61721;42.206;25.320;2024-03-29T09:45:08;3.45;;;0.70;;
73487;SDS011;61721;42.206;25.320;2024-03-29T09:47:40;3.75;;;0.70;;
73487;SDS011;61721;42.206;25.320;2024-03-29T09:50:09;3.88;;;0.93;;
73487;SDS011;61721;42.206;25.320;2024-03-29T09:52:38;3.03;;;0.70;;
73487;SDS011;61721;42.206;25.320;2024-03-29T09:55:07;2.55;;;0.68;;
73487;SDS011;61721;42.206;25.320;2024-03-29T09:57:37;3.60;;;0.70;;
73487;SDS011;61721;42.206;25.320;2024-03-29T10:00:06;4.03;;;0.80;;
73487;SDS011;61721;42.206;25.320;2024-03-29T10:02:33;6.22;;;0.80;;
73487;SDS011;61721;42.206;25.320;2024-03-29T10:05:02;4.30;;;0.77;;
73487;SDS011;61721;42.206;25.320;2024-03-29T10:07:33;4.43;;;0.60;;
73487;SDS011;61721;42.206;25.320;2024-03-29T10:10:03;5.55;;;0.60;;
73487;SDS011;61721;42.206;25.320;2024-03-29T10:12:31;5.07;;;0.68;;
73487;SDS011;61721;42.206;25.320;2024-03-29T10:14:59;5.40;;;0.80;;
73487;SDS011;61721;42.206;25.320;2024-03-29T10:22:35;4.53;;;0.90;;
73487;SDS011;61721;42.206;25.320;2024-03-29T10:25:04;5.28;;;0.63;;
73487;SDS011;61721;42.206;25.320;2024-03-29T10:27:33;1.58;;;0.50;;
73487;SDS011;61721;42.206;25.320;2024-03-29T10:30:02;3.20;;;0.70;;
73487;SDS011;61721;42.206;25.320;2024-03-29T10:32:30;3.80;;;0.70;;
73487;SDS011;61721;42.206;25.320;2024-03-29T10:34:58;3.28;;;0.80;;
73487;SDS011;61721;42.206;25.320;2024-03-29T10:37:28;4.05;;;0.93;;
73487;SDS011;61721;42.206;25.320;2024-03-29T10:40:00;4.47;;;1.00;;
73487;SDS011;61721;42.206;25.320;2024-03-29T10:42:29;3.60;;;0.80;;
73487;SDS011;61721;42.206;25.320;2024-03-29T10:44:59;4.78;;;0.63;;
73487;SDS011;61721;42.206;25.320;2024-03-29T10:47:30;4.43;;;0.90;;
73487;SDS011;61721;42.206;25.320;2024-03-29T10:49:59;4.22;;;0.95;;
73487;SDS011;61721;42.206;25.320;2024-03-29T10:52:28;3.53;;;0.85;;
73487;SDS011;61721;42.206;25.320;2024-03-29T10:54:55;7.20;;;0.95;;
73487;SDS011;61721;42.206;25.320;2024-03-29T10:57:24;2.78;;;0.80;;
73487;SDS011;61721;42.206;25.320;2024-03-29T10:59:56;3.60;;;0.90;;
73487;SDS011;61721;42.206;25.320;2024-03-29T11:02:33;5.68;;;0.80;;
73487;SDS011;61721;42.206;25.320;2024-03-29T11:05:08;6.88;;;0.93;;
73487;SDS011;61721;42.206;25.320;2024-03-29T11:07:40;2.50;;;0.60;;
73487;SDS011;61721;42.206;25.320;2024-03-29T11:10:10;3.38;;;0.90;;
73487;SDS011;61721;42.206;25.320;2024-03-29T11:12:47;3.38;;;0.70;;
73487;SDS011;61721;42.206;25.320;2024-03-29T11:15:32;4.05;;;0.60;;
73487;SDS011;61721;42.206;25.320;2024-03-29T11:18:07;5.00;;;0.90;;
73487;SDS011;61721;42.206;25.320;2024-03-29T11:20:36;4.50;;;0.90;;
73487;SDS011;61721;42.206;25.320;2024-03-29T11:23:07;4.63;;;0.50;;
73487;SDS011;61721;42.206;25.320;2024-03-29T11:25:44;5.97;;;0.60;;
73487;SDS011;61721;42.206;25.320;2024-03-29T11:28:22;4.25;;;0.60;;
73487;SDS011;61721;42.206;25.320;2024-03-29T11:30:52;3.38;;;0.65;;
73487;SDS011;61721;42.206;25.320;2024-03-29T11:33:28;4.13;;;0.70;;
73487;SDS011;61721;42.206;25.320;2024-03-29T11:35:56;2.88;;;0.50;;
73487;SDS011;61721;42.206;25.320;2024-03-29T11:38:31;1.90;;;0.50;;
73487;SDS011;61721;42.206;25.320;2024-03-29T11:41:02;2.38;;;0.60;;
73487;SDS011;61721;42.206;25.320;2024-03-29T11:43:29;6.53;;;0.80;;
73487;SDS011;61721;42.206;25.320;2024-03-29T11:45:58;1.92;;;0.60;;
73487;SDS011;61721;42.206;25.320;2024-03-29T11:48:29;8.43;;;0.70;;
73487;SDS011;61721;42.206;25.320;2024-03-29T11:51:00;2.47;;;0.50;;
73487;SDS011;61721;42.206;25.320;2024-03-29T11:53:29;3.70;;;0.60;;
73487;SDS011;61721;42.206;25.320;2024-03-29T11:55:57;5.07;;;0.60;;
73487;SDS011;61721;42.206;25.320;2024-03-29T11:58:25;2.25;;;0.60;;
73487;SDS011;61721;42.206;25.320;2024-03-29T12:00:54;2.00;;;0.50;;
73487;SDS011;61721;42.206;25.320;2024-03-29T12:03:23;3.67;;;1.08;;
73487;SDS011;61721;42.206;25.320;2024-03-29T12:05:54;5.60;;;2.45;;
73487;SDS011;61721;42.206;25.320;2024-03-29T12:08:24;2.35;;;0.85;;
73487;SDS011;61721;42.206;25.320;2024-03-29T12:10:52;4.28;;;0.60;;
73487;SDS011;61721;42.206;25.320;2024-03-29T12:13:20;2.10;;;0.50;;
73487;SDS011;61721;42.206;25.320;2024-03-29T12:15:48;36.17;;;2.00;;
73487;SDS011;61721;42.206;25.320;2024-03-29T12:18:15;3.15;;;0.52;;
73487;SDS011;61721;42.206;25.320;2024-03-29T12:20:43;3.03;;;0.70;;
73487;SDS011;61721;42.206;25.320;2024-03-29T12:23:13;1.73;;;0.40;;
73487;SDS011;61721;42.206;25.320;2024-03-29T12:25:40;3.60;;;0.60;;
73487;SDS011;61721;42.206;25.320;2024-03-29T12:28:08;11.80;;;4.80;;
73487;SDS011;61721;42.206;25.320;2024-03-29T12:30:37;16.92;;;5.55;;
73487;SDS011;61721;42.206;25.320;2024-03-29T12:33:08;6.35;;;2.35;;
73487;SDS011;61721;42.206;25.320;2024-03-29T12:35:39;5.00;;;1.25;;
73487;SDS011;61721;42.206;25.320;2024-03-29T12:38:10;5.03;;;1.10;;
73487;SDS011;61721;42.206;25.320;2024-03-29T12:40:40;11.88;;;1.23;;
73487;SDS011;61721;42.206;25.320;2024-03-29T12:43:10;5.03;;;0.60;;
73487;SDS011;61721;42.206;25.320;2024-03-29T12:45:38;3.13;;;0.40;;
73487;SDS011;61721;42.206;25.320;2024-03-29T12:48:09;3.15;;;0.70;;
73487;SDS011;61721;42.206;25.320;2024-03-29T12:50:39;17.27;;;6.35;;
73487;SDS011;61721;42.206;25.320;2024-03-29T12:53:07;3.47;;;0.70;;
73487;SDS011;61721;42.206;25.320;2024-03-29T12:55:39;3.88;;;1.02;;
73487;SDS011;61721;42.206;25.320;2024-03-29T12:58:09;2.55;;;0.50;;
73487;SDS011;61721;42.206;25.320;2024-03-29T13:00:37;3.08;;;0.60;;
73487;SDS011;61721;42.206;25.320;2024-03-29T13:03:04;3.17;;;0.40;;
73487;SDS011;61721;42.206;25.320;2024-03-29T13:05:32;12.18;;;2.95;;
73487;SDS011;61721;42.206;25.320;2024-03-29T13:08:05;6.55;;;2.00;;
73487;SDS011;61721;42.206;25.320;2024-03-29T13:10:34;3.05;;;0.93;;
73487;SDS011;61721;42.206;25.320;2024-03-29T13:13:03;4.85;;;1.25;;
73487;SDS011;61721;42.206;25.320;2024-03-29T13:15:32;24.08;;;9.05;;
73487;SDS011;61721;42.206;25.320;2024-03-29T13:18:01;5.43;;;1.40;;
73487;SDS011;61721;42.206;25.320;2024-03-29T13:20:29;3.17;;;0.80;;
73487;SDS011;61721;42.206;25.320;2024-03-29T13:22:58;2.33;;;0.70;;
73487;SDS011;61721;42.206;25.320;2024-03-29T13:25:26;4.25;;;0.90;;
73487;SDS011;61721;42.206;25.320;2024-03-29T13:27:53;6.13;;;0.75;;
73487;SDS011;61721;42.206;25.320;2024-03-29T13:30:23;3.83;;;0.60;;
73487;SDS011;61721;42.206;25.320;2024-03-29T13:32:52;4.13;;;1.45;;
73487;SDS011;61721;42.206;25.320;2024-03-29T13:35:20;4.13;;;0.80;;
73487;SDS011;61721;42.206;25.320;2024-03-29T13:37:48;3.10;;;0.73;;
73487;SDS011;61721;42.206;25.320;2024-03-29T13:40:17;3.13;;;0.70;;
73487;SDS011;61721;42.206;25.320;2024-03-29T13:42:46;3.40;;;1.00;;
73487;SDS011;61721;42.206;25.320;2024-03-29T13:45:22;2.72;;;0.60;;
73487;SDS011;61721;42.206;25.320;2024-03-29T13:47:51;4.47;;;1.13;;
73487;SDS011;61721;42.206;25.320;2024-03-29T13:50:19;3.72;;;0.88;;
73487;SDS011;61721;42.206;25.320;2024-03-29T13:52:46;4.18;;;0.80;;
73487;SDS011;61721;42.206;25.320;2024-03-29T13:55:14;2.60;;;0.63;;
73487;SDS011;61721;42.206;25.320;2024-03-29T13:57:43;2.13;;;0.77;;
73487;SDS011;61721;42.206;25.320;2024-03-29T14:00:11;4.53;;;0.88;;
73487;SDS011;61721;42.206;25.320;2024-03-29T14:02:44;4.82;;;1.00;;
73487;SDS011;61721;42.206;25.320;2024-03-29T14:05:12;4.72;;;1.30;;
73487;SDS011;61721;42.206;25.320;2024-03-29T14:07:39;5.43;;;1.38;;
73487;SDS011;61721;42.206;25.320;2024-03-29T14:10:07;3.67;;;1.23;;
73487;SDS011;61721;42.206;25.320;2024-03-29T14:12:35;6.70;;;1.55;;
73487;SDS011;61721;42.206;25.320;2024-03-29T14:15:03;5.88;;;1.30;;
73487;SDS011;61721;42.206;25.320;2024-03-29T14:17:32;4.20;;;1.20;;
73487;SDS011;61721;42.206;25.320;2024-03-29T14:20:01;5.20;;;1.10;;
73487;SDS011;61721;42.206;25.320;2024-03-29T14:22:30;5.95;;;1.23;;
73487;SDS011;61721;42.206;25.320;2024-03-29T14:24:59;4.18;;;1.00;;
73487;SDS011;61721;42.206;25.320;2024-03-29T14:27:28;3.85;;;0.80;;
73487;SDS011;61721;42.206;25.320;2024-03-29T14:29:56;4.45;;;1.25;;
73487;SDS011;61721;42.206;25.320;2024-03-29T14:32:24;5.82;;;1.40;;
73487;SDS011;61721;42.206;25.320;2024-03-29T14:34:52;5.45;;;1.08;;
73487;SDS011;61721;42.206;25.320;2024-03-29T14:37:21;3.20;;;1.10;;
73487;SDS011;61721;42.206;25.320;2024-03-29T14:39:48;3.00;;;1.00;;
73487;SDS011;61721;42.206;25.320;2024-03-29T14:42:15;6.15;;;1.33;;
73487;SDS011;61721;42.206;25.320;2024-03-29T14:44:47;4.63;;;1.38;;
73487;SDS011;61721;42.206;25.320;2024-03-29T14:47:15;5.65;;;1.00;;
73487;SDS011;61721;42.206;25.320;2024-03-29T14:49:43;3.47;;;0.98;;
73487;SDS011;61721;42.206;25.320;2024-03-29T14:52:12;5.80;;;1.50;;